sensor_id;sensor_type;location;lat;lon;timestamp;pressure;altitude;pressure_sealevel;temperature;humidity
49935;BME280;39898;41.762;26.200;2023-02-02T00:01:53;100986.03;;;1.16;87.90
49935;BME280;39898;41.762;26.200;2023-02-02T00:04:21;100986.19;;;1.22;88.62
49935;BME280;39898;41.762;26.200;2023-02-02T00:06:48;100992.19;;;1.21;87.79
49935;BME280;39898;41.762;26.200;2023-02-02T00:09:15;100988.75;;;1.20;87.24
49935;BME280;39898;41.762;26.200;2023-02-02T00:11:42;100987.13;;;1.25;87.68
49935;BME280;39898;41.762;26.200;2023-02-02T00:14:09;100979.97;;;1.15;86.67
49935;BME280;39898;41.762;26.200;2023-02-02T00:16:49;100980.81;;;1.14;86.68
49935;BME280;39898;41.762;26.200;2023-02-02T00:19:17;100971.53;;;1.22;85.87
49935;BME280;39898;41.762;26.200;2023-02-02T00:21:44;100965.91;;;1.04;86.06
49935;BME280;39898;41.762;26.200;2023-02-02T00:24:13;100958.47;;;1.16;86.21
49935;BME280;39898;41.762;26.200;2023-02-02T00:26:40;100957.63;;;1.17;85.57
49935;BME280;39898;41.762;26.200;2023-02-02T00:29:08;100950.22;;;0.98;86.53
49935;BME280;39898;41.762;26.200;2023-02-02T00:31:37;100946.06;;;1.03;85.73
49935;BME280;39898;41.762;26.200;2023-02-02T00:34:03;100946.97;;;1.05;86.11
49935;BME280;39898;41.762;26.200;2023-02-02T00:36:30;100940.16;;;1.09;85.64
49935;BME280;39898;41.762;26.200;2023-02-02T00:38:56;100946.47;;;1.20;85.40
49935;BME280;39898;41.762;26.200;2023-02-02T00:41:23;100955.19;;;1.23;85.05
49935;BME280;39898;41.762;26.200;2023-02-02T00:43:49;100948.91;;;1.14;84.56
49935;BME280;39898;41.762;26.200;2023-02-02T00:46:39;100958.94;;;1.02;84.47
49935;BME280;39898;41.762;26.200;2023-02-02T00:49:06;100955.59;;;1.06;84.75
49935;BME280;39898;41.762;26.200;2023-02-02T00:51:33;100950.78;;;0.87;85.96
49935;BME280;39898;41.762;26.200;2023-02-02T00:54:00;100943.53;;;1.05;85.84
49935;BME280;39898;41.762;26.200;2023-02-02T00:56:27;100939.00;;;0.96;85.10
49935;BME280;39898;41.762;26.200;2023-02-02T00:58:53;100946.78;;;0.99;84.71
49935;BME280;39898;41.762;26.200;2023-02-02T01:01:20;100952.53;;;0.88;84.73
49935;BME280;39898;41.762;26.200;2023-02-02T01:03:48;100942.59;;;1.03;85.20
49935;BME280;39898;41.762;26.200;2023-02-02T01:06:15;100939.16;;;1.04;85.19
49935;BME280;39898;41.762;26.200;2023-02-02T01:08:41;100936.69;;;1.08;86.05
49935;BME280;39898;41.762;26.200;2023-02-02T01:11:08;100945.25;;;1.06;87.16
49935;BME280;39898;41.762;26.200;2023-02-02T01:13:35;100939.13;;;1.02;88.13
49935;BME280;39898;41.762;26.200;2023-02-02T01:16:02;100942.38;;;0.95;88.77
49935;BME280;39898;41.762;26.200;2023-02-02T01:18:28;100943.41;;;1.00;88.42
49935;BME280;39898;41.762;26.200;2023-02-02T01:21:03;100944.25;;;1.01;89.57
49935;BME280;39898;41.762;26.200;2023-02-02T01:23:30;100939.41;;;0.80;88.61
49935;BME280;39898;41.762;26.200;2023-02-02T01:25:57;100950.78;;;0.87;88.97
49935;BME280;39898;41.762;26.200;2023-02-02T01:28:24;100947.81;;;0.72;89.51
49935;BME280;39898;41.762;26.200;2023-02-02T01:30:51;100952.47;;;0.85;90.62
49935;BME280;39898;41.762;26.200;2023-02-02T01:33:18;100955.94;;;0.87;90.53
49935;BME280;39898;41.762;26.200;2023-02-02T01:35:45;100946.19;;;0.77;90.19
49935;BME280;39898;41.762;26.200;2023-02-02T01:38:12;100952.13;;;0.73;90.02
49935;BME280;39898;41.762;26.200;2023-02-02T01:40:46;100950.78;;;0.56;91.93
49935;BME280;39898;41.762;26.200;2023-02-02T01:43:19;100957.03;;;0.64;91.91
49935;BME280;39898;41.762;26.200;2023-02-02T01:45:47;100956.22;;;0.65;93.31
49935;BME280;39898;41.762;26.200;2023-02-02T01:48:14;100963.00;;;0.61;92.61
49935;BME280;39898;41.762;26.200;2023-02-02T01:50:41;100953.78;;;0.71;92.91
49935;BME280;39898;41.762;26.200;2023-02-02T01:53:08;100957.41;;;0.77;93.64
49935;BME280;39898;41.762;26.200;2023-02-02T01:55:37;100962.84;;;0.86;93.82
49935;BME280;39898;41.762;26.200;2023-02-02T01:58:13;100971.44;;;0.87;93.41
49935;BME280;39898;41.762;26.200;2023-02-02T02:00:41;100965.16;;;0.77;93.15
49935;BME280;39898;41.762;26.200;2023-02-02T02:03:13;100977.16;;;0.75;93.39
49935;BME280;39898;41.762;26.200;2023-02-02T02:05:41;100946.28;;;0.49;93.94
49935;BME280;39898;41.762;26.200;2023-02-02T02:08:26;100958.00;;;0.38;94.59
49935;BME280;39898;41.762;26.200;2023-02-02T02:10:54;100991.47;;;0.35;95.70
49935;BME280;39898;41.762;26.200;2023-02-02T02:13:21;100988.13;;;0.37;95.86
49935;BME280;39898;41.762;26.200;2023-02-02T02:18:49;100989.97;;;0.41;95.55
49935;BME280;39898;41.762;26.200;2023-02-02T02:40:07;100999.91;;;0.88;93.65
49935;BME280;39898;41.762;26.200;2023-02-02T02:42:38;100996.88;;;1.03;93.72
49935;BME280;39898;41.762;26.200;2023-02-02T02:45:06;100997.84;;;1.06;93.68
49935;BME280;39898;41.762;26.200;2023-02-02T02:47:33;100993.81;;;1.17;93.25
49935;BME280;39898;41.762;26.200;2023-02-02T02:50:00;100994.84;;;1.24;92.46
49935;BME280;39898;41.762;26.200;2023-02-02T02:52:26;100987.09;;;1.24;92.93
49935;BME280;39898;41.762;26.200;2023-02-02T02:54:54;100991.50;;;1.26;92.73
49935;BME280;39898;41.762;26.200;2023-02-02T03:02:26;100996.81;;;1.34;92.48
49935;BME280;39898;41.762;26.200;2023-02-02T03:07:34;100982.69;;;1.54;91.07
49935;BME280;39898;41.762;26.200;2023-02-02T03:10:03;100985.63;;;1.67;90.74
49935;BME280;39898;41.762;26.200;2023-02-02T03:12:31;100991.63;;;1.66;90.17
49935;BME280;39898;41.762;26.200;2023-02-02T03:14:57;100985.69;;;1.70;90.32
49935;BME280;39898;41.762;26.200;2023-02-02T03:17:25;100988.50;;;1.79;88.82
49935;BME280;39898;41.762;26.200;2023-02-02T03:19:52;100977.41;;;1.49;90.17
49935;BME280;39898;41.762;26.200;2023-02-02T03:22:19;100975.25;;;1.67;90.24
49935;BME280;39898;41.762;26.200;2023-02-02T03:24:45;100976.50;;;1.47;90.36
49935;BME280;39898;41.762;26.200;2023-02-02T03:27:12;100973.47;;;1.29;90.88
49935;BME280;39898;41.762;26.200;2023-02-02T03:29:38;100970.31;;;1.08;91.92
49935;BME280;39898;41.762;26.200;2023-02-02T03:32:05;100964.84;;;1.30;92.29
49935;BME280;39898;41.762;26.200;2023-02-02T03:34:31;100962.31;;;1.32;91.27
49935;BME280;39898;41.762;26.200;2023-02-02T03:36:58;100959.81;;;1.35;91.17
49935;BME280;39898;41.762;26.200;2023-02-02T03:39:24;100956.72;;;1.49;89.98
49935;BME280;39898;41.762;26.200;2023-02-02T03:41:50;100953.44;;;1.56;90.01
49935;BME280;39898;41.762;26.200;2023-02-02T03:44:17;100953.25;;;1.49;89.96
49935;BME280;39898;41.762;26.200;2023-02-02T03:46:45;100956.22;;;1.30;90.27
49935;BME280;39898;41.762;26.200;2023-02-02T03:49:11;100950.16;;;1.28;90.54
49935;BME280;39898;41.762;26.200;2023-02-02T03:51:38;100948.22;;;1.21;91.36
49935;BME280;39898;41.762;26.200;2023-02-02T03:54:04;100954.88;;;1.11;92.19
49935;BME280;39898;41.762;26.200;2023-02-02T03:56:31;100937.81;;;1.18;92.33
49935;BME280;39898;41.762;26.200;2023-02-02T03:58:57;100941.38;;;1.23;91.82
49935;BME280;39898;41.762;26.200;2023-02-02T04:01:25;100935.66;;;1.34;91.72
49935;BME280;39898;41.762;26.200;2023-02-02T04:03:53;100941.59;;;1.30;91.64
49935;BME280;39898;41.762;26.200;2023-02-02T04:06:20;100942.63;;;1.04;91.92
49935;BME280;39898;41.762;26.200;2023-02-02T04:08:46;100945.59;;;1.18;92.50
49935;BME280;39898;41.762;26.200;2023-02-02T04:11:13;100942.34;;;1.26;92.04
49935;BME280;39898;41.762;26.200;2023-02-02T04:13:42;100948.28;;;1.24;91.76
49935;BME280;39898;41.762;26.200;2023-02-02T04:16:09;100946.41;;;1.17;91.67
49935;BME280;39898;41.762;26.200;2023-02-02T04:18:36;100936.75;;;1.10;91.10
49935;BME280;39898;41.762;26.200;2023-02-02T04:21:06;100941.91;;;1.10;92.28
49935;BME280;39898;41.762;26.200;2023-02-02T04:23:33;100951.16;;;1.00;92.70
49935;BME280;39898;41.762;26.200;2023-02-02T04:25:59;100951.88;;;0.95;91.88
49935;BME280;39898;41.762;26.200;2023-02-02T04:28:26;100949.38;;;0.99;92.64
49935;BME280;39898;41.762;26.200;2023-02-02T04:30:55;100951.19;;;1.02;92.26
49935;BME280;39898;41.762;26.200;2023-02-02T04:33:22;100952.47;;;0.85;92.78
49935;BME280;39898;41.762;26.200;2023-02-02T04:35:49;100945.22;;;0.72;93.21
49935;BME280;39898;41.762;26.200;2023-02-02T04:38:16;100951.59;;;0.55;93.36
49935;BME280;39898;41.762;26.200;2023-02-02T04:40:43;100954.69;;;0.42;94.22
49935;BME280;39898;41.762;26.200;2023-02-02T04:43:10;100958.63;;;0.29;95.21
49935;BME280;39898;41.762;26.200;2023-02-02T04:45:37;100959.25;;;0.50;94.36
49935;BME280;39898;41.762;26.200;2023-02-02T04:48:04;100979.31;;;0.31;94.17
49935;BME280;39898;41.762;26.200;2023-02-02T04:50:30;100974.94;;;-0.02;95.07
49935;BME280;39898;41.762;26.200;2023-02-02T04:52:57;100978.38;;;-0.01;95.33
49935;BME280;39898;41.762;26.200;2023-02-02T04:55:24;100970.94;;;0.10;95.21
49935;BME280;39898;41.762;26.200;2023-02-02T04:57:51;100963.34;;;0.14;94.97
49935;BME280;39898;41.762;26.200;2023-02-02T05:00:17;100967.53;;;0.11;96.01
49935;BME280;39898;41.762;26.200;2023-02-02T05:02:44;100966.75;;;0.13;95.61
49935;BME280;39898;41.762;26.200;2023-02-02T05:05:11;100973.13;;;0.24;95.32
49935;BME280;39898;41.762;26.200;2023-02-02T05:07:38;100973.16;;;0.26;94.14
49935;BME280;39898;41.762;26.200;2023-02-02T05:10:07;100976.03;;;0.36;94.20
49935;BME280;39898;41.762;26.200;2023-02-02T05:12:34;100979.94;;;0.22;94.33
49935;BME280;39898;41.762;26.200;2023-02-02T05:15:01;100985.19;;;0.25;94.77
49935;BME280;39898;41.762;26.200;2023-02-02T05:17:30;100972.13;;;0.21;94.02
49935;BME280;39898;41.762;26.200;2023-02-02T05:19:57;100971.34;;;0.23;95.03
49935;BME280;39898;41.762;26.200;2023-02-02T05:22:23;100972.38;;;0.28;94.17
49935;BME280;39898;41.762;26.200;2023-02-02T05:24:50;100974.34;;;0.37;93.80
49935;BME280;39898;41.762;26.200;2023-02-02T05:27:16;100975.22;;;0.37;94.89
49935;BME280;39898;41.762;26.200;2023-02-02T05:29:43;100975.19;;;0.36;94.26
49935;BME280;39898;41.762;26.200;2023-02-02T05:32:09;100968.34;;;0.38;94.69
49935;BME280;39898;41.762;26.200;2023-02-02T05:34:36;100982.94;;;0.36;94.02
49935;BME280;39898;41.762;26.200;2023-02-02T05:37:02;100977.28;;;0.49;94.59
49935;BME280;39898;41.762;26.200;2023-02-02T05:39:29;100983.81;;;0.38;94.02
49935;BME280;39898;41.762;26.200;2023-02-02T05:41:55;100980.03;;;0.25;93.63
49935;BME280;39898;41.762;26.200;2023-02-02T05:44:22;100972.78;;;0.42;94.41
49935;BME280;39898;41.762;26.200;2023-02-02T05:46:48;100977.47;;;0.56;93.66
49935;BME280;39898;41.762;26.200;2023-02-02T05:49:15;100987.81;;;0.56;93.24
49935;BME280;39898;41.762;26.200;2023-02-02T05:51:42;100982.88;;;0.64;93.41
49935;BME280;39898;41.762;26.200;2023-02-02T05:54:10;100992.38;;;0.65;92.70
49935;BME280;39898;41.762;26.200;2023-02-02T05:56:37;100992.06;;;0.54;93.44
49935;BME280;39898;41.762;26.200;2023-02-02T05:59:04;100996.03;;;0.42;93.38
49935;BME280;39898;41.762;26.200;2023-02-02T06:01:32;101002.03;;;0.42;93.96
49935;BME280;39898;41.762;26.200;2023-02-02T06:03:59;101008.59;;;0.31;93.90
49935;BME280;39898;41.762;26.200;2023-02-02T06:06:26;101008.94;;;0.14;94.56
49935;BME280;39898;41.762;26.200;2023-02-02T06:08:52;100999.91;;;-0.01;95.30
49935;BME280;39898;41.762;26.200;2023-02-02T06:11:19;101011.66;;;0.18;95.36
49935;BME280;39898;41.762;26.200;2023-02-02T06:13:45;101014.84;;;0.10;95.37
49935;BME280;39898;41.762;26.200;2023-02-02T06:16:12;101012.69;;;0.25;95.02
49935;BME280;39898;41.762;26.200;2023-02-02T06:18:39;101017.53;;;0.42;94.81
49935;BME280;39898;41.762;26.200;2023-02-02T06:21:05;101022.22;;;0.26;94.95
49935;BME280;39898;41.762;26.200;2023-02-02T06:23:32;101008.78;;;0.37;94.99
49935;BME280;39898;41.762;26.200;2023-02-02T06:25:59;101029.63;;;0.43;95.66
49935;BME280;39898;41.762;26.200;2023-02-02T06:28:26;101007.06;;;0.66;94.78
49935;BME280;39898;41.762;26.200;2023-02-02T06:30:53;101015.81;;;0.72;94.18
49935;BME280;39898;41.762;26.200;2023-02-02T06:33:19;101017.59;;;0.73;94.04
49935;BME280;39898;41.762;26.200;2023-02-02T06:35:46;101022.59;;;0.67;93.96
49935;BME280;39898;41.762;26.200;2023-02-02T06:38:12;101017.84;;;0.82;93.45
49935;BME280;39898;41.762;26.200;2023-02-02T06:40:39;101021.34;;;0.84;92.84
49935;BME280;39898;41.762;26.200;2023-02-02T06:43:05;101027.22;;;0.79;93.16
49935;BME280;39898;41.762;26.200;2023-02-02T06:45:34;101022.28;;;0.88;93.28
49935;BME280;39898;41.762;26.200;2023-02-02T06:48:05;101025.56;;;1.12;93.37
49935;BME280;39898;41.762;26.200;2023-02-02T06:50:36;101021.69;;;0.96;93.30
49935;BME280;39898;41.762;26.200;2023-02-02T06:53:03;101021.41;;;1.18;93.75
49935;BME280;39898;41.762;26.200;2023-02-02T06:55:30;101032.66;;;1.19;94.34
49935;BME280;39898;41.762;26.200;2023-02-02T06:57:57;101035.50;;;1.28;93.92
49935;BME280;39898;41.762;26.200;2023-02-02T07:00:24;101028.00;;;1.38;93.75
49935;BME280;39898;41.762;26.200;2023-02-02T07:02:51;101030.94;;;1.52;93.02
49935;BME280;39898;41.762;26.200;2023-02-02T07:05:18;101026.09;;;1.65;91.66
49935;BME280;39898;41.762;26.200;2023-02-02T07:07:45;101030.91;;;1.86;90.75
49935;BME280;39898;41.762;26.200;2023-02-02T07:10:12;101020.69;;;1.90;90.52
49935;BME280;39898;41.762;26.200;2023-02-02T07:12:59;101021.50;;;2.25;89.96
49935;BME280;39898;41.762;26.200;2023-02-02T07:15:26;101024.56;;;2.47;88.22
49935;BME280;39898;41.762;26.200;2023-02-02T07:17:53;101031.19;;;2.74;87.30
49935;BME280;39898;41.762;26.200;2023-02-02T07:20:20;101018.03;;;3.08;84.87
49935;BME280;39898;41.762;26.200;2023-02-02T07:22:46;101011.63;;;3.35;83.67
49935;BME280;39898;41.762;26.200;2023-02-02T07:25:13;101011.19;;;3.59;82.46
49935;BME280;39898;41.762;26.200;2023-02-02T07:27:40;101012.41;;;3.80;81.77
49935;BME280;39898;41.762;26.200;2023-02-02T07:30:07;101012.84;;;4.07;81.78
49935;BME280;39898;41.762;26.200;2023-02-02T07:32:33;101013.09;;;4.24;80.27
49935;BME280;39898;41.762;26.200;2023-02-02T07:35:00;101010.84;;;4.48;79.69
49935;BME280;39898;41.762;26.200;2023-02-02T07:37:26;101014.53;;;4.65;79.31
49935;BME280;39898;41.762;26.200;2023-02-02T07:39:53;101001.00;;;4.96;78.05
49935;BME280;39898;41.762;26.200;2023-02-02T07:42:19;101000.41;;;5.20;78.39
49935;BME280;39898;41.762;26.200;2023-02-02T07:44:46;100987.56;;;5.35;77.62
49935;BME280;39898;41.762;26.200;2023-02-02T07:47:12;100988.63;;;5.56;77.26
49935;BME280;39898;41.762;26.200;2023-02-02T07:49:39;100996.50;;;5.65;75.85
49935;BME280;39898;41.762;26.200;2023-02-02T07:52:05;100994.13;;;5.92;76.89
49935;BME280;39898;41.762;26.200;2023-02-02T07:54:33;101008.97;;;6.02;76.50
49935;BME280;39898;41.762;26.200;2023-02-02T07:57:00;101002.91;;;6.02;77.90
49935;BME280;39898;41.762;26.200;2023-02-02T07:59:27;100999.66;;;6.36;77.14
49935;BME280;39898;41.762;26.200;2023-02-02T08:01:57;100998.97;;;6.74;75.82
49935;BME280;39898;41.762;26.200;2023-02-02T08:04:23;100999.00;;;6.80;73.23
49935;BME280;39898;41.762;26.200;2023-02-02T08:06:50;101009.56;;;7.18;73.41
49935;BME280;39898;41.762;26.200;2023-02-02T08:09:16;101008.75;;;7.32;71.81
49935;BME280;39898;41.762;26.200;2023-02-02T08:11:43;101000.03;;;7.36;70.68
49935;BME280;39898;41.762;26.200;2023-02-02T08:14:11;100998.31;;;7.52;71.42
49935;BME280;39898;41.762;26.200;2023-02-02T08:16:37;100994.84;;;7.71;70.13
49935;BME280;39898;41.762;26.200;2023-02-02T08:19:04;101000.06;;;8.06;68.44
49935;BME280;39898;41.762;26.200;2023-02-02T08:21:31;100997.44;;;8.30;66.42
49935;BME280;39898;41.762;26.200;2023-02-02T08:23:58;100991.25;;;8.59;63.79
49935;BME280;39898;41.762;26.200;2023-02-02T08:26:25;100999.81;;;8.94;62.98
49935;BME280;39898;41.762;26.200;2023-02-02T08:28:53;101002.34;;;9.17;60.74
49935;BME280;39898;41.762;26.200;2023-02-02T08:31:25;100997.78;;;9.47;59.65
49935;BME280;39898;41.762;26.200;2023-02-02T08:33:52;100999.38;;;9.68;58.19
49935;BME280;39898;41.762;26.200;2023-02-02T08:36:24;101007.06;;;9.89;59.01
49935;BME280;39898;41.762;26.200;2023-02-02T08:38:51;100995.97;;;9.58;58.56
49935;BME280;39898;41.762;26.200;2023-02-02T08:41:19;100998.44;;;9.73;58.37
49935;BME280;39898;41.762;26.200;2023-02-02T08:43:47;101007.91;;;9.96;59.16
49935;BME280;39898;41.762;26.200;2023-02-02T08:46:14;100982.38;;;10.14;56.49
49935;BME280;39898;41.762;26.200;2023-02-02T08:48:42;100985.66;;;10.37;54.16
49935;BME280;39898;41.762;26.200;2023-02-02T08:51:10;100973.84;;;10.73;51.73
49935;BME280;39898;41.762;26.200;2023-02-02T08:53:37;100989.50;;;10.83;51.91
49935;BME280;39898;41.762;26.200;2023-02-02T08:56:04;100981.81;;;10.65;52.87
49935;BME280;39898;41.762;26.200;2023-02-02T08:58:32;100981.84;;;10.62;50.51
49935;BME280;39898;41.762;26.200;2023-02-02T09:01:05;100966.69;;;10.84;49.00
49935;BME280;39898;41.762;26.200;2023-02-02T09:03:33;100964.56;;;11.11;47.77
49935;BME280;39898;41.762;26.200;2023-02-02T09:06:05;100953.00;;;11.24;45.44
49935;BME280;39898;41.762;26.200;2023-02-02T09:08:32;100946.69;;;11.36;46.39
49935;BME280;39898;41.762;26.200;2023-02-02T09:11:06;100951.84;;;11.42;45.51
49935;BME280;39898;41.762;26.200;2023-02-02T09:13:34;100939.59;;;11.42;43.94
49935;BME280;39898;41.762;26.200;2023-02-02T09:16:02;100941.28;;;11.45;42.19
49935;BME280;39898;41.762;26.200;2023-02-02T09:18:29;100935.13;;;11.46;42.08
49935;BME280;39898;41.762;26.200;2023-02-02T09:20:59;100928.06;;;11.49;41.54
49935;BME280;39898;41.762;26.200;2023-02-02T09:23:30;100921.00;;;11.51;41.62
49935;BME280;39898;41.762;26.200;2023-02-02T09:25:56;100926.00;;;11.69;40.86
49935;BME280;39898;41.762;26.200;2023-02-02T09:28:23;100915.50;;;11.69;40.14
49935;BME280;39898;41.762;26.200;2023-02-02T09:30:49;100931.94;;;11.80;41.83
49935;BME280;39898;41.762;26.200;2023-02-02T09:33:16;100910.09;;;11.77;39.52
49935;BME280;39898;41.762;26.200;2023-02-02T09:35:43;100916.13;;;11.82;39.76
49935;BME280;39898;41.762;26.200;2023-02-02T09:38:09;100913.44;;;11.86;38.80
49935;BME280;39898;41.762;26.200;2023-02-02T09:40:36;100910.72;;;11.91;38.73
49935;BME280;39898;41.762;26.200;2023-02-02T09:45:35;100901.69;;;12.05;39.90
49935;BME280;39898;41.762;26.200;2023-02-02T09:50:40;100899.63;;;12.21;39.12
49935;BME280;39898;41.762;26.200;2023-02-02T09:55:41;100904.34;;;12.47;39.64
49935;BME280;39898;41.762;26.200;2023-02-02T10:00:43;100889.47;;;12.46;38.74
49935;BME280;39898;41.762;26.200;2023-02-02T10:03:16;100878.13;;;12.41;39.22
49935;BME280;39898;41.762;26.200;2023-02-02T10:08:16;100876.13;;;12.53;39.43
49935;BME280;39898;41.762;26.200;2023-02-02T10:10:59;100863.59;;;12.64;39.64
49935;BME280;39898;41.762;26.200;2023-02-02T10:13:30;100861.66;;;12.71;38.53
49935;BME280;39898;41.762;26.200;2023-02-02T10:16:02;100860.63;;;12.78;38.47
49935;BME280;39898;41.762;26.200;2023-02-02T10:18:40;100857.06;;;12.82;38.27
49935;BME280;39898;41.762;26.200;2023-02-02T10:21:11;100854.88;;;13.00;39.21
49935;BME280;39898;41.762;26.200;2023-02-02T10:23:40;100859.38;;;12.94;37.92
49935;BME280;39898;41.762;26.200;2023-02-02T10:26:18;100858.81;;;12.81;37.42
49935;BME280;39898;41.762;26.200;2023-02-02T10:32:13;100832.06;;;12.98;38.08
49935;BME280;39898;41.762;26.200;2023-02-02T10:39:48;100826.47;;;13.11;38.62
49935;BME280;39898;41.762;26.200;2023-02-02T10:42:33;100823.81;;;13.13;37.38
49935;BME280;39898;41.762;26.200;2023-02-02T10:47:34;100824.19;;;12.96;36.07
49935;BME280;39898;41.762;26.200;2023-02-02T10:52:40;100822.16;;;13.09;36.50
49935;BME280;39898;41.762;26.200;2023-02-02T11:00:21;100800.91;;;13.15;35.37
49935;BME280;39898;41.762;26.200;2023-02-02T11:02:49;100790.97;;;13.26;34.58
49935;BME280;39898;41.762;26.200;2023-02-02T11:05:23;100795.66;;;13.15;35.19
49935;BME280;39898;41.762;26.200;2023-02-02T11:08:29;100778.06;;;13.14;34.40
49935;BME280;39898;41.762;26.200;2023-02-02T11:10:57;100766.94;;;13.36;35.15
49935;BME280;39898;41.762;26.200;2023-02-02T11:13:30;100762.47;;;13.70;35.02
49935;BME280;39898;41.762;26.200;2023-02-02T11:18:42;100766.47;;;13.53;35.26
49935;BME280;39898;41.762;26.200;2023-02-02T11:26:24;100771.41;;;13.66;34.51
49935;BME280;39898;41.762;26.200;2023-02-02T11:28:51;100762.09;;;13.53;33.07
49935;BME280;39898;41.762;26.200;2023-02-02T11:31:29;100746.91;;;13.61;34.74
49935;BME280;39898;41.762;26.200;2023-02-02T11:34:09;100744.47;;;13.84;33.97
49935;BME280;39898;41.762;26.200;2023-02-02T11:36:35;100745.72;;;14.02;32.49
49935;BME280;39898;41.762;26.200;2023-02-02T11:39:16;100745.91;;;13.96;33.80
49935;BME280;39898;41.762;26.200;2023-02-02T11:41:45;100740.16;;;13.82;32.86
49935;BME280;39898;41.762;26.200;2023-02-02T11:44:16;100744.22;;;13.93;33.08
49935;BME280;39898;41.762;26.200;2023-02-02T11:46:46;100742.00;;;13.78;31.50
49935;BME280;39898;41.762;26.200;2023-02-02T11:49:15;100727.25;;;14.02;33.42
49935;BME280;39898;41.762;26.200;2023-02-02T11:52:00;100728.81;;;14.07;33.23
49935;BME280;39898;41.762;26.200;2023-02-02T11:54:36;100720.50;;;14.22;32.87
49935;BME280;39898;41.762;26.200;2023-02-02T11:57:04;100714.25;;;14.25;32.35
49935;BME280;39898;41.762;26.200;2023-02-02T11:59:39;100715.78;;;14.60;32.67
49935;BME280;39898;41.762;26.200;2023-02-02T12:02:19;100719.53;;;14.53;32.64
49935;BME280;39898;41.762;26.200;2023-02-02T12:04:47;100720.44;;;14.24;31.15
49935;BME280;39898;41.762;26.200;2023-02-02T12:07:27;100716.06;;;14.23;30.89
49935;BME280;39898;41.762;26.200;2023-02-02T12:09:56;100715.81;;;14.30;30.68
49935;BME280;39898;41.762;26.200;2023-02-02T12:20:21;100705.91;;;14.65;33.66
49935;BME280;39898;41.762;26.200;2023-02-02T12:25:40;100698.03;;;14.63;32.34
49935;BME280;39898;41.762;26.200;2023-02-02T12:28:25;100697.66;;;14.48;31.14
49935;BME280;39898;41.762;26.200;2023-02-02T12:31:06;100695.09;;;14.44;31.00
49935;BME280;39898;41.762;26.200;2023-02-02T12:38:59;100674.28;;;14.35;30.75
49935;BME280;39898;41.762;26.200;2023-02-02T12:54:08;100675.09;;;14.64;30.65
49935;BME280;39898;41.762;26.200;2023-02-02T13:02:41;100668.09;;;14.07;31.80
49935;BME280;39898;41.762;26.200;2023-02-02T13:08:13;100666.63;;;13.97;32.15
49935;BME280;39898;41.762;26.200;2023-02-02T13:10:42;100672.94;;;14.21;32.87
49935;BME280;39898;41.762;26.200;2023-02-02T13:13:11;100673.75;;;14.24;32.04
49935;BME280;39898;41.762;26.200;2023-02-02T13:15:44;100672.63;;;14.31;32.08
49935;BME280;39898;41.762;26.200;2023-02-02T13:20:54;100665.84;;;14.51;32.63
49935;BME280;39898;41.762;26.200;2023-02-02T13:23:27;100673.28;;;14.39;32.82
49935;BME280;39898;41.762;26.200;2023-02-02T13:26:00;100674.88;;;14.43;32.85
49935;BME280;39898;41.762;26.200;2023-02-02T13:28:39;100667.94;;;14.41;32.72
49935;BME280;39898;41.762;26.200;2023-02-02T13:31:13;100669.34;;;14.25;32.73
49935;BME280;39898;41.762;26.200;2023-02-02T13:33:42;100675.38;;;13.99;33.06
49935;BME280;39898;41.762;26.200;2023-02-02T13:36:23;100671.56;;;13.80;32.00
49935;BME280;39898;41.762;26.200;2023-02-02T13:38:54;100665.88;;;13.94;33.22
49935;BME280;39898;41.762;26.200;2023-02-02T13:41:22;100663.25;;;13.94;33.41
49935;BME280;39898;41.762;26.200;2023-02-02T13:43:53;100656.72;;;14.05;34.47
49935;BME280;39898;41.762;26.200;2023-02-02T13:51:33;100655.66;;;14.11;33.62
49935;BME280;39898;41.762;26.200;2023-02-02T14:01:27;100644.22;;;14.10;35.09
49935;BME280;39898;41.762;26.200;2023-02-02T14:03:56;100642.47;;;14.11;34.83
49935;BME280;39898;41.762;26.200;2023-02-02T14:06:24;100649.69;;;14.04;35.15
49935;BME280;39898;41.762;26.200;2023-02-02T14:08:53;100642.34;;;13.86;34.91
49935;BME280;39898;41.762;26.200;2023-02-02T14:11:25;100644.53;;;13.72;34.63
49935;BME280;39898;41.762;26.200;2023-02-02T14:13:54;100640.00;;;13.76;35.51
49935;BME280;39898;41.762;26.200;2023-02-02T14:16:41;100640.97;;;13.73;35.75
49935;BME280;39898;41.762;26.200;2023-02-02T14:31:57;100627.50;;;14.10;36.41
49935;BME280;39898;41.762;26.200;2023-02-02T14:47:50;100625.63;;;13.57;36.63
49935;BME280;39898;41.762;26.200;2023-02-02T14:50:21;100625.91;;;13.48;37.12
49935;BME280;39898;41.762;26.200;2023-02-02T14:55:35;100627.00;;;13.41;37.71
49935;BME280;39898;41.762;26.200;2023-02-02T14:58:04;100621.53;;;13.47;37.62
49935;BME280;39898;41.762;26.200;2023-02-02T15:00:32;100626.72;;;13.50;38.58
49935;BME280;39898;41.762;26.200;2023-02-02T15:03:20;100630.94;;;13.55;38.36
49935;BME280;39898;41.762;26.200;2023-02-02T15:06:02;100627.50;;;13.53;38.76
49935;BME280;39898;41.762;26.200;2023-02-02T15:08:29;100630.75;;;13.32;40.31
49935;BME280;39898;41.762;26.200;2023-02-02T15:11:00;100634.03;;;13.10;40.48
49935;BME280;39898;41.762;26.200;2023-02-02T15:13:28;100632.81;;;13.21;39.80
49935;BME280;39898;41.762;26.200;2023-02-02T15:16:06;100629.72;;;13.07;39.83
49935;BME280;39898;41.762;26.200;2023-02-02T15:18:39;100636.50;;;13.16;40.38
49935;BME280;39898;41.762;26.200;2023-02-02T15:21:08;100628.63;;;13.14;40.63
49935;BME280;39898;41.762;26.200;2023-02-02T15:23:40;100621.63;;;13.13;40.41
49935;BME280;39898;41.762;26.200;2023-02-02T15:26:12;100618.16;;;13.11;40.89